createdAt,value
2023-04-12T00:02:12.764Z,95855.56
2023-04-12T00:04:39.407Z,95841.59
2023-04-12T00:07:05.848Z,95837.84
2023-04-12T00:09:32.162Z,95845.09
2023-04-12T00:11:58.467Z,95847.75
2023-04-12T00:14:24.792Z,95835.59
2023-04-12T00:16:51.086Z,95827.59
2023-04-12T00:19:17.369Z,95828.03
2023-04-12T00:21:43.687Z,95823.69
2023-04-12T00:24:09.978Z,95813.09
2023-04-12T00:26:36.300Z,95815.19
2023-04-12T00:29:02.635Z,95803.03
2023-04-12T00:31:29.018Z,95798.59
2023-04-12T00:33:55.709Z,95789.78
2023-04-12T00:36:22.292Z,95790.13
2023-04-12T00:38:48.597Z,95785.09
2023-04-12T00:41:14.892Z,95784.13
2023-04-12T00:43:41.207Z,95768.81
2023-04-12T00:46:07.602Z,95775.19
2023-04-12T00:48:34.182Z,95773.84
2023-04-12T00:51:00.498Z,95756.56
2023-04-12T00:53:26.911Z,95752.47
2023-04-12T00:55:53.220Z,95758.25
2023-04-12T00:58:19.549Z,95749.34
2023-04-12T01:00:45.880Z,95741.50
2023-04-12T01:03:12.363Z,95748.44
2023-04-12T01:05:38.831Z,95734.41
2023-04-12T01:08:05.138Z,95728.88
2023-04-12T01:10:31.462Z,95728.63
2023-04-12T01:12:57.820Z,95730.50
2023-04-12T01:15:24.114Z,95727.59
2023-04-12T01:17:50.448Z,95736.34
2023-04-12T01:20:16.899Z,95725.19
2023-04-12T01:22:43.239Z,95729.22
2023-04-12T01:25:09.530Z,95729.53
2023-04-12T01:27:35.864Z,95720.91
2023-04-12T01:30:02.176Z,95725.44
2023-04-12T01:32:28.502Z,95714.88
2023-04-12T01:34:54.856Z,95708.59
2023-04-12T01:37:21.151Z,95707.56
2023-04-12T01:39:47.452Z,95699.31
2023-04-12T01:42:13.756Z,95703.53
2023-04-12T01:44:40.053Z,95704.66
2023-04-12T01:47:06.362Z,95692.97
2023-04-12T01:49:32.673Z,95697.66
2023-04-12T01:51:58.968Z,95687.72
2023-04-12T01:54:25.275Z,95689.41
2023-04-12T01:56:51.587Z,95679.06
2023-04-12T01:59:17.873Z,95666.75
2023-04-12T02:01:44.395Z,95644.47
2023-04-12T02:04:10.840Z,95654.72
2023-04-12T02:06:37.169Z,95647.88
2023-04-12T02:09:03.466Z,95639.94
2023-04-12T02:11:29.815Z,95642.81
2023-04-12T02:13:56.369Z,95645.19
2023-04-12T02:16:23.038Z,95649.97
2023-04-12T02:18:49.508Z,95641.97
2023-04-12T02:21:15.816Z,95644.53
2023-04-12T02:23:42.104Z,95639.44
2023-04-12T02:26:08.413Z,95632.19
2023-04-12T02:28:34.768Z,95632.63
2023-04-12T02:31:01.212Z,95631.28
2023-04-12T02:33:27.566Z,95627.06
2023-04-12T02:35:53.893Z,95627.19
2023-04-12T02:38:20.202Z,95609.81
2023-04-12T02:40:46.568Z,95609.91
2023-04-12T02:43:12.865Z,95598.50
2023-04-12T02:45:39.173Z,95607.56
2023-04-12T02:48:05.604Z,95602.72
2023-04-12T02:50:31.934Z,95597.94
2023-04-12T02:52:58.230Z,95595.84
2023-04-12T02:55:24.548Z,95596.28
2023-04-12T02:57:50.852Z,95607.44
2023-04-12T03:00:17.167Z,95602.19
2023-04-12T03:02:43.674Z,95585.63
2023-04-12T03:05:10.085Z,95578.59
2023-04-12T03:07:36.404Z,95574.84
2023-04-12T03:10:02.713Z,95567.16
2023-04-12T03:12:28.996Z,95567.50
2023-04-12T03:14:55.302Z,95557.91
2023-04-12T03:17:21.635Z,95546.44
2023-04-12T03:19:47.997Z,95546.09
2023-04-12T03:22:14.291Z,95548.19
2023-04-12T03:24:40.637Z,95547.34
2023-04-12T03:27:06.950Z,95545.09
2023-04-12T03:29:33.257Z,95536.09
2023-04-12T03:31:59.594Z,95553.13
2023-04-12T03:34:25.914Z,95537.22
2023-04-12T03:36:52.218Z,95544.88
2023-04-12T03:39:18.541Z,95547.69
2023-04-12T03:41:44.830Z,95545.91
2023-04-12T03:44:11.119Z,95544.00
2023-04-12T03:46:37.465Z,95542.00
2023-04-12T03:49:03.779Z,95542.56
2023-04-12T03:51:30.086Z,95536.88
2023-04-12T03:53:56.626Z,95526.09
2023-04-12T03:56:23.195Z,95533.97
2023-04-12T03:58:49.495Z,95538.31
2023-04-12T04:01:15.813Z,95538.09
2023-04-12T04:03:42.361Z,95533.00
2023-04-12T04:06:08.766Z,95526.75
2023-04-12T04:08:35.089Z,95520.53
2023-04-12T04:11:01.392Z,95524.41
2023-04-12T04:13:27.751Z,95525.28
2023-04-12T04:15:54.115Z,95529.88
2023-04-12T04:18:20.405Z,95516.41
2023-04-12T04:20:46.705Z,95509.94
2023-04-12T04:23:13.027Z,95502.97
2023-04-12T04:25:39.370Z,95491.13
2023-04-12T04:28:05.709Z,95486.34
2023-04-12T04:30:32.057Z,95475.88
2023-04-12T04:32:58.421Z,95483.69
2023-04-12T04:35:24.760Z,95484.00
2023-04-12T04:37:51.137Z,95488.16
2023-04-12T04:40:17.435Z,95478.91
2023-04-12T04:42:43.750Z,95469.34
2023-04-12T04:45:10.062Z,95466.06
2023-04-12T04:47:36.354Z,95455.78
2023-04-12T04:50:02.651Z,95453.63
2023-04-12T04:52:28.961Z,95468.44
2023-04-12T04:54:55.263Z,95460.97
2023-04-12T04:57:21.555Z,95469.59
2023-04-12T04:59:47.860Z,95462.31
2023-04-12T05:02:14.224Z,95467.69
2023-04-12T05:04:40.533Z,95471.16
2023-04-12T05:07:06.848Z,95462.25
2023-04-12T05:09:33.131Z,95466.69
2023-04-12T05:11:59.419Z,95459.91
2023-04-12T05:14:33.829Z,95455.56
2023-04-12T05:17:07.882Z,95453.25
2023-04-12T05:19:34.195Z,95463.69
2023-04-12T05:22:00.473Z,95465.47
2023-04-12T05:24:26.761Z,95451.66
2023-04-12T05:26:53.089Z,95454.78
2023-04-12T05:29:19.390Z,95460.66
2023-04-12T05:31:45.687Z,95455.13
2023-04-12T05:34:12.051Z,95457.19
2023-04-12T05:36:38.355Z,95454.34
2023-04-12T05:39:04.658Z,95454.22
2023-04-12T05:41:30.977Z,95453.31
2023-04-12T05:43:57.259Z,95449.44
2023-04-12T05:46:23.605Z,95454.34
2023-04-12T05:48:49.974Z,95437.31
2023-04-12T05:51:16.283Z,95439.75
2023-04-12T05:53:42.600Z,95434.09
2023-04-12T05:56:08.923Z,95439.75
2023-04-12T05:58:35.223Z,95435.16
2023-04-12T06:01:01.532Z,95429.81
2023-04-12T06:03:27.935Z,95424.44
2023-04-12T06:05:54.305Z,95417.09
2023-04-12T06:08:20.606Z,95414.84
2023-04-12T06:10:46.930Z,95408.28
2023-04-12T06:13:13.219Z,95410.47
2023-04-12T06:15:39.549Z,95406.56
2023-04-12T06:18:06.002Z,95406.38
2023-04-12T06:20:32.366Z,95389.88
2023-04-12T06:22:58.706Z,95393.75
2023-04-12T06:25:25.020Z,95396.31
2023-04-12T06:27:51.332Z,95397.06
2023-04-12T06:30:17.620Z,95390.75
2023-04-12T06:32:43.965Z,95395.97
2023-04-12T06:35:10.264Z,95399.63
2023-04-12T06:37:36.581Z,95391.72
2023-04-12T06:40:02.970Z,95394.06
2023-04-12T06:42:29.263Z,95401.53
2023-04-12T06:44:55.570Z,95404.09
2023-04-12T06:47:21.963Z,95397.41
2023-04-12T06:49:48.274Z,95382.09
2023-04-12T06:52:14.751Z,95376.31
2023-04-12T06:54:41.295Z,95381.25
2023-04-12T06:57:07.638Z,95383.06
2023-04-12T06:59:33.938Z,95376.00
2023-04-12T07:02:00.382Z,95371.41
2023-04-12T07:04:26.711Z,95374.25
2023-04-12T07:06:53.015Z,95367.38
2023-04-12T07:09:19.332Z,95368.16
2023-04-12T07:11:45.638Z,95359.09
2023-04-12T07:14:11.954Z,95357.00
2023-04-12T07:16:38.352Z,95348.50
2023-04-12T07:19:04.693Z,95345.59
2023-04-12T07:21:31.020Z,95344.94
2023-04-12T07:23:57.384Z,95344.50
2023-04-12T07:26:23.691Z,95324.59
2023-04-12T07:28:49.998Z,95334.50
2023-04-12T07:31:16.316Z,95336.97
2023-04-12T07:33:43.310Z,95324.44
2023-04-12T07:36:10.087Z,95326.66
2023-04-12T07:38:36.486Z,95325.19
2023-04-12T07:41:02.791Z,95315.56
2023-04-12T07:43:29.120Z,95314.53
2023-04-12T07:45:55.510Z,95310.84
2023-04-12T07:48:21.912Z,95309.59
2023-04-12T07:50:48.237Z,95327.88
2023-04-12T07:53:14.554Z,95322.13
2023-04-12T07:55:40.851Z,95327.72
2023-04-12T07:58:07.175Z,95313.63
2023-04-12T08:00:33.487Z,95305.00
2023-04-12T08:02:59.929Z,95314.59
2023-04-12T08:05:26.378Z,95313.84
2023-04-12T08:07:52.709Z,95307.94
2023-04-12T08:10:19.029Z,95307.31
2023-04-12T08:12:45.328Z,95302.84
2023-04-12T08:15:11.652Z,95296.13
2023-04-12T08:17:38.012Z,95297.66
2023-04-12T08:20:04.338Z,95294.50
2023-04-12T08:22:30.661Z,95299.91
2023-04-12T08:24:56.959Z,95284.19
2023-04-12T08:27:23.254Z,95283.78
2023-04-12T08:29:49.581Z,95285.63
2023-04-12T08:32:15.915Z,95281.94
2023-04-12T08:34:44.765Z,95282.09
2023-04-12T08:37:12.352Z,95275.56
2023-04-12T08:39:38.653Z,95279.09
2023-04-12T08:42:04.939Z,95280.00
2023-04-12T08:44:31.265Z,95287.56
2023-04-12T08:46:57.660Z,95283.13
2023-04-12T08:49:24.005Z,95294.53
2023-04-12T08:51:50.365Z,95291.00
2023-04-12T08:54:16.693Z,95306.50
2023-04-12T08:56:43.006Z,95296.44
2023-04-12T08:59:09.353Z,95284.97
2023-04-12T09:01:35.679Z,95296.47
2023-04-12T09:04:02.319Z,95288.97
2023-04-12T09:06:28.969Z,95276.94
2023-04-12T09:08:55.290Z,95273.69
2023-04-12T09:11:21.583Z,95280.84
2023-04-12T09:13:47.909Z,95280.53
2023-04-12T09:16:14.256Z,95269.72
2023-04-12T09:18:40.619Z,95266.06
2023-04-12T09:21:06.935Z,95267.84
2023-04-12T09:23:33.251Z,95255.28
2023-04-12T09:25:59.553Z,95261.09
2023-04-12T09:28:26.138Z,95251.97
2023-04-12T09:30:52.653Z,95249.69
2023-04-12T09:33:19.007Z,95246.13
2023-04-12T09:35:45.396Z,95256.84
2023-04-12T09:38:11.758Z,95254.06
2023-04-12T09:40:38.080Z,95253.13
2023-04-12T09:43:04.396Z,95251.75
2023-04-12T09:45:30.695Z,95244.41
2023-04-12T09:47:57.003Z,95239.88
2023-04-12T09:50:23.347Z,95244.50
2023-04-12T09:52:49.682Z,95237.88
2023-04-12T09:55:16.018Z,95239.06
2023-04-12T09:57:42.363Z,95224.56
2023-04-12T10:00:08.690Z,95210.66
2023-04-12T10:02:35.217Z,95217.81
2023-04-12T10:05:01.938Z,95214.59
2023-04-12T10:07:28.430Z,95219.81
2023-04-12T10:09:54.746Z,95215.06
2023-04-12T10:12:21.058Z,95229.19
2023-04-12T10:14:47.352Z,95214.59
2023-04-12T10:17:13.655Z,95215.66
2023-04-12T10:19:39.987Z,95218.97
2023-04-12T10:22:06.295Z,95212.59
2023-04-12T10:24:32.623Z,95212.88
2023-04-12T10:26:58.947Z,95208.72
2023-04-12T10:29:25.247Z,95206.78
2023-04-12T10:31:51.667Z,95210.63
2023-04-12T10:34:18.074Z,95210.91
2023-04-12T10:36:44.404Z,95207.72
2023-04-12T10:39:10.685Z,95203.28
2023-04-12T10:41:37.004Z,95205.63
2023-04-12T10:44:03.322Z,95201.75
2023-04-12T10:46:29.690Z,95213.72
2023-04-12T10:48:56.407Z,95222.41
2023-04-12T10:51:22.926Z,95219.91
2023-04-12T10:53:49.223Z,95223.59
2023-04-12T10:56:15.556Z,95245.69
2023-04-12T10:58:42.031Z,95245.59
2023-04-12T11:01:08.403Z,95240.38
2023-04-12T11:03:34.905Z,95236.31
2023-04-12T11:06:09.228Z,95229.16
2023-04-12T11:08:39.359Z,95233.53
2023-04-12T11:11:05.658Z,95233.72
2023-04-12T11:13:31.948Z,95228.97
2023-04-12T11:15:58.328Z,95228.13
2023-04-12T11:18:24.752Z,95227.63
2023-04-12T11:20:51.455Z,95215.63
2023-04-12T11:23:17.840Z,95204.56
2023-04-12T11:25:44.141Z,95208.75
2023-04-12T11:28:25.061Z,95206.41
2023-04-12T11:30:54.711Z,95217.41
2023-04-12T11:33:21.002Z,95212.59
2023-04-12T11:35:47.285Z,95201.72
2023-04-12T11:38:13.609Z,95195.53
2023-04-12T11:40:39.911Z,95196.75
2023-04-12T11:43:06.202Z,95190.38
2023-04-12T11:45:32.519Z,95201.81
2023-04-12T11:47:58.970Z,95191.53
2023-04-12T11:50:25.305Z,95205.34
2023-04-12T11:52:51.636Z,95206.25
2023-04-12T11:55:17.928Z,95211.88
2023-04-12T11:57:44.220Z,95206.25
2023-04-12T12:00:10.546Z,95202.66
2023-04-12T12:02:43.734Z,95199.09
2023-04-12T12:05:19.240Z,95205.03
2023-04-12T12:07:45.698Z,95206.72
2023-04-12T12:10:16.398Z,95205.59
2023-04-12T12:12:47.355Z,95204.41
2023-04-12T12:15:13.654Z,95202.16
2023-04-12T12:17:39.998Z,95202.81
2023-04-12T12:20:06.370Z,95197.22
2023-04-12T12:22:32.668Z,95193.44
2023-04-12T12:24:58.988Z,95193.00
2023-04-12T12:27:25.406Z,95185.38
2023-04-12T12:29:51.784Z,95190.69
2023-04-12T12:32:18.135Z,95195.31
2023-04-12T12:34:44.463Z,95190.50
2023-04-12T12:37:10.754Z,95196.38
2023-04-12T12:39:37.045Z,95197.03
2023-04-12T12:42:03.403Z,95187.91
2023-04-12T12:44:29.706Z,95189.78
2023-04-12T12:47:03.374Z,95203.69
2023-04-12T12:49:39.727Z,95191.75
2023-04-12T12:52:06.025Z,95195.44
2023-04-12T12:54:41.118Z,95198.56
2023-04-12T12:57:08.040Z,95192.38
2023-04-12T12:59:34.372Z,95198.91
2023-04-12T13:02:00.748Z,95196.22
2023-04-12T13:04:27.280Z,95197.69
2023-04-12T13:06:53.676Z,95195.66
2023-04-12T13:09:19.973Z,95193.31
2023-04-12T13:11:46.333Z,95195.63
2023-04-12T13:14:12.645Z,95198.59
2023-04-12T13:16:38.981Z,95195.97
2023-04-12T13:19:05.383Z,95195.22
2023-04-12T13:21:31.699Z,95191.06
2023-04-12T13:23:58.000Z,95192.66
2023-04-12T13:26:24.316Z,95188.53
2023-04-12T13:28:50.601Z,95194.59
2023-04-12T13:31:16.976Z,95189.81
2023-04-12T13:33:43.324Z,95182.19
2023-04-12T13:36:10.743Z,95180.34
2023-04-12T13:38:37.041Z,95180.78
2023-04-12T13:41:03.356Z,95178.81
2023-04-12T13:43:29.659Z,95183.94
2023-04-12T13:45:56.006Z,95184.50
2023-04-12T13:48:22.345Z,95171.47
2023-04-12T13:50:50.762Z,95177.81
2023-04-12T13:53:18.230Z,95178.00
2023-04-12T13:55:44.547Z,95171.81
2023-04-12T13:58:10.856Z,95165.63
2023-04-12T14:00:37.182Z,95161.91
2023-04-12T14:03:03.690Z,95153.34
2023-04-12T14:05:30.293Z,95153.13
2023-04-12T14:07:56.621Z,95145.41
2023-04-12T14:10:22.943Z,95138.69
2023-04-12T14:12:49.247Z,95137.59
2023-04-12T14:15:15.545Z,95135.75
2023-04-12T14:17:42.032Z,95139.97
2023-04-12T14:20:08.362Z,95139.06
2023-04-12T14:22:34.669Z,95131.59
2023-04-12T14:25:00.995Z,95138.91
2023-04-12T14:27:27.304Z,95132.44
2023-04-12T14:29:53.596Z,95131.34
2023-04-12T14:32:19.957Z,95140.84
2023-04-12T14:34:46.292Z,95138.69
2023-04-12T14:37:12.620Z,95139.91
2023-04-12T14:39:38.928Z,95139.16
2023-04-12T14:42:05.223Z,95137.94
2023-04-12T14:44:31.525Z,95151.72
2023-04-12T14:46:58.001Z,95145.03
2023-04-12T14:49:24.349Z,95156.38
2023-04-12T14:51:50.655Z,95156.97
2023-04-12T14:54:16.969Z,95156.34
2023-04-12T14:56:51.156Z,95154.66
2023-04-12T14:59:19.080Z,95157.28
2023-04-12T15:01:45.468Z,95147.84
2023-04-12T15:04:11.945Z,95133.75
2023-04-12T15:06:38.475Z,95126.16
2023-04-12T15:09:06.466Z,95132.81
2023-04-12T15:11:33.102Z,95137.78
2023-04-12T15:13:59.626Z,95138.53
2023-04-12T15:16:26.212Z,95149.84
2023-04-12T15:18:52.570Z,95156.97
2023-04-12T15:21:18.930Z,95150.47
2023-04-12T15:23:45.246Z,95139.78
2023-04-12T15:26:11.543Z,95127.38
2023-04-12T15:28:37.880Z,95128.94
2023-04-12T15:31:04.198Z,95120.56
2023-04-12T15:33:30.501Z,95125.69
2023-04-12T15:35:56.838Z,95131.09
2023-04-12T15:38:23.833Z,95142.69
2023-04-12T15:40:50.529Z,95135.75
2023-04-12T15:43:16.919Z,95131.09
2023-04-12T15:45:43.261Z,95132.28
2023-04-12T15:48:09.584Z,95137.13
2023-04-12T15:50:35.910Z,95133.38
2023-04-12T15:53:02.203Z,95148.41
2023-04-12T15:55:28.513Z,95143.41
2023-04-12T15:57:54.839Z,95142.94
2023-04-12T16:00:21.362Z,95151.75
2023-04-12T16:02:47.920Z,95133.34
2023-04-12T16:05:14.387Z,95147.31
2023-04-12T16:07:40.706Z,95156.91
2023-04-12T16:10:07.004Z,95148.41
2023-04-12T16:12:33.327Z,95155.75
2023-04-12T16:14:59.622Z,95150.09
2023-04-12T16:17:26.039Z,95145.72
2023-04-12T16:19:52.424Z,95152.81
2023-04-12T16:22:18.725Z,95149.13
2023-04-12T16:24:45.024Z,95154.91
2023-04-12T16:27:11.385Z,95159.06
2023-04-12T16:29:37.694Z,95152.59
2023-04-12T16:32:04.028Z,95153.47
2023-04-12T16:34:30.380Z,95154.53
2023-04-12T16:36:56.671Z,95163.69
2023-04-12T16:39:22.969Z,95177.00
2023-04-12T16:41:49.336Z,95176.34
2023-04-12T16:44:15.634Z,95171.69
2023-04-12T16:46:42.011Z,95173.53
2023-04-12T16:49:08.352Z,95175.06
2023-04-12T16:51:36.658Z,95167.97
2023-04-12T16:54:03.764Z,95170.56
2023-04-12T16:56:30.104Z,95172.66
2023-04-12T16:58:56.421Z,95183.38
2023-04-12T17:01:22.718Z,95161.09
2023-04-12T17:03:49.181Z,95173.50
2023-04-12T17:06:15.640Z,95171.50
2023-04-12T17:08:41.952Z,95183.13
2023-04-12T17:11:08.348Z,95174.47
2023-04-12T17:13:34.719Z,95170.16
2023-04-12T17:16:01.057Z,95171.38
2023-04-12T17:18:27.382Z,95175.22
2023-04-12T17:20:53.688Z,95173.50
2023-04-12T17:23:20.129Z,95177.38
2023-04-12T17:25:46.923Z,95173.81
2023-04-12T17:28:13.208Z,95178.16
2023-04-12T17:30:40.033Z,95173.81
2023-04-12T17:33:06.396Z,95174.56
2023-04-12T17:35:32.770Z,95171.59
2023-04-12T17:37:59.115Z,95155.53
2023-04-12T17:40:25.441Z,95170.00
2023-04-12T17:42:51.742Z,95168.78
2023-04-12T17:45:18.060Z,95189.78
2023-04-12T17:47:44.445Z,95190.75
2023-04-12T17:50:10.746Z,95200.50
2023-04-12T17:52:37.061Z,95213.66
2023-04-12T17:55:03.462Z,95211.00
2023-04-12T17:57:29.764Z,95229.34
2023-04-12T17:59:56.067Z,95217.13
2023-04-12T18:02:22.776Z,95209.19
2023-04-12T18:04:49.339Z,95215.34
2023-04-12T18:07:15.633Z,95215.53
2023-04-12T18:09:41.952Z,95216.38
2023-04-12T18:12:08.245Z,95217.63
2023-04-12T18:14:34.559Z,95214.84
2023-04-12T18:17:00.879Z,95210.44
2023-04-12T18:19:27.185Z,95212.78
2023-04-12T18:21:53.522Z,95215.66
2023-04-12T18:24:19.838Z,95219.81
2023-04-12T18:26:46.156Z,95218.34
2023-04-12T18:29:12.462Z,95222.41
2023-04-12T18:31:38.871Z,95223.97
2023-04-12T18:34:05.215Z,95226.59
2023-04-12T18:36:31.505Z,95234.88
2023-04-12T18:38:57.856Z,95243.53
2023-04-12T18:41:24.163Z,95256.81
2023-04-12T18:43:50.473Z,95260.19
2023-04-12T18:46:17.087Z,95259.47
2023-04-12T18:48:43.490Z,95251.50
2023-04-12T18:51:09.992Z,95262.38
2023-04-12T18:53:36.358Z,95275.00
2023-04-12T18:56:02.654Z,95264.56
2023-04-12T18:58:41.537Z,95267.94
2023-04-12T19:01:15.303Z,95259.44
2023-04-12T19:03:41.814Z,95256.06
2023-04-12T19:06:08.175Z,95268.66
2023-04-12T19:08:34.502Z,95259.47
2023-04-12T19:11:00.797Z,95268.84
2023-04-12T19:13:27.104Z,95279.44
2023-04-12T19:15:53.514Z,95296.13
2023-04-12T19:18:19.822Z,95320.06
2023-04-12T19:20:46.119Z,95329.19
2023-04-12T19:23:12.428Z,95348.69
2023-04-12T19:25:38.743Z,95357.38
2023-04-12T19:28:05.060Z,95352.75
2023-04-12T19:30:31.366Z,95330.97
2023-04-12T19:32:57.708Z,95325.88
2023-04-12T19:35:24.040Z,95324.31
2023-04-12T19:37:50.355Z,95321.56
2023-04-12T19:40:16.644Z,95319.66
2023-04-12T19:42:42.946Z,95308.44
2023-04-12T19:45:09.320Z,95325.19
2023-04-12T19:47:35.657Z,95314.00
2023-04-12T19:50:01.954Z,95330.34
2023-04-12T19:52:28.451Z,95338.75
2023-04-12T19:54:54.767Z,95334.75
2023-04-12T19:57:21.068Z,95351.78
2023-04-12T19:59:47.400Z,95349.00
2023-04-12T20:02:13.726Z,95346.09
2023-04-12T20:04:40.097Z,95341.84
2023-04-12T20:07:06.436Z,95333.75
2023-04-12T20:09:32.747Z,95387.19
2023-04-12T20:11:59.069Z,95386.75
2023-04-12T20:14:26.932Z,95373.41
2023-04-12T20:16:53.488Z,95374.06
2023-04-12T20:19:19.810Z,95372.19
2023-04-12T20:21:46.133Z,95379.41
2023-04-12T20:24:12.438Z,95407.63
2023-04-12T20:26:38.722Z,95378.38
2023-04-12T20:29:05.051Z,95378.38
2023-04-12T20:31:31.511Z,95385.63
2023-04-12T20:33:57.938Z,95374.84
2023-04-12T20:36:24.244Z,95403.38
2023-04-12T20:38:50.524Z,95411.09
2023-04-12T20:41:16.809Z,95405.84
2023-04-12T20:43:43.100Z,95395.78
2023-04-12T20:46:09.481Z,95412.13
2023-04-12T20:48:35.793Z,95402.66
2023-04-12T20:51:02.128Z,95410.78
2023-04-12T20:53:28.426Z,95407.75
2023-04-12T20:55:54.720Z,95421.03
2023-04-12T20:58:21.017Z,95420.59
2023-04-12T21:00:47.309Z,95448.41
2023-04-12T21:03:13.757Z,95457.00
2023-04-12T21:05:40.116Z,95449.88
2023-04-12T21:08:06.397Z,95448.00
2023-04-12T21:10:32.679Z,95452.53
2023-04-12T21:12:58.984Z,95468.88
2023-04-12T21:15:25.272Z,95463.63
2023-04-12T21:17:51.612Z,95482.22
2023-04-12T21:20:17.970Z,95474.16
2023-04-12T21:22:44.263Z,95474.09
2023-04-12T21:25:10.572Z,95468.19
2023-04-12T21:27:36.876Z,95471.56
2023-04-12T21:30:03.157Z,95450.56
2023-04-12T21:32:29.472Z,95459.25
2023-04-12T21:34:55.787Z,95501.06
2023-04-12T21:37:22.089Z,95468.97
2023-04-12T21:39:48.405Z,95478.03
2023-04-12T21:42:14.842Z,95485.13
2023-04-12T21:44:41.137Z,95498.88
2023-04-12T21:47:07.428Z,95470.22
2023-04-12T21:49:33.746Z,95463.91
2023-04-12T21:52:00.035Z,95462.94
2023-04-12T21:54:26.329Z,95458.78
2023-04-12T21:56:52.690Z,95485.63
2023-04-12T21:59:18.988Z,95479.47
2023-04-12T22:01:45.294Z,95478.00
2023-04-12T22:04:11.608Z,95489.09
2023-04-12T22:06:37.931Z,95486.22
2023-04-12T22:09:04.238Z,95503.03
2023-04-12T22:11:30.619Z,95509.09
2023-04-12T22:13:56.945Z,95507.97
2023-04-12T22:16:23.321Z,95520.78
2023-04-12T22:18:49.728Z,95510.75
2023-04-12T22:21:16.012Z,95514.06
2023-04-12T22:23:42.311Z,95518.56
2023-04-12T22:26:08.608Z,95516.97
2023-04-12T22:28:34.888Z,95548.88
2023-04-12T22:31:01.208Z,95529.28
2023-04-12T22:33:27.514Z,95539.41
2023-04-12T22:35:53.820Z,95543.06
2023-04-12T22:38:20.107Z,95526.50
2023-04-12T22:40:46.417Z,95523.28
2023-04-12T22:43:12.706Z,95514.56
2023-04-12T22:45:38.998Z,95518.94
2023-04-12T22:48:05.375Z,95526.72
2023-04-12T22:50:31.678Z,95520.63
2023-04-12T22:52:57.963Z,95530.06
2023-04-12T22:55:24.252Z,95520.63
2023-04-12T22:57:50.528Z,95527.72
2023-04-12T23:00:17.176Z,95517.50
2023-04-12T23:02:43.675Z,95526.78
2023-04-12T23:05:10.082Z,95517.66
2023-04-12T23:07:36.385Z,95508.78
2023-04-12T23:10:02.694Z,95498.63
2023-04-12T23:12:28.991Z,95524.91
2023-04-12T23:14:55.321Z,95523.53
2023-04-12T23:17:21.660Z,95526.13
2023-04-12T23:19:47.961Z,95523.97
2023-04-12T23:22:14.247Z,95529.56
2023-04-12T23:24:40.554Z,95546.00
2023-04-12T23:27:06.853Z,95537.59
2023-04-12T23:29:33.146Z,95546.00
2023-04-12T23:31:59.580Z,95537.41
2023-04-12T23:34:25.962Z,95537.31
2023-04-12T23:36:52.252Z,95529.69
2023-04-12T23:39:18.546Z,95520.94
2023-04-12T23:41:44.837Z,95527.97
2023-04-12T23:44:11.121Z,95530.38
2023-04-12T23:46:37.449Z,95535.59
2023-04-12T23:49:03.786Z,95531.56
2023-04-12T23:51:30.078Z,95538.28
2023-04-12T23:53:56.566Z,95542.22
2023-04-12T23:56:22.977Z,95537.13
2023-04-12T23:58:49.338Z,95537.06
